createdAt,value
2022-11-29T00:00:49.082Z,100
2022-11-29T00:01:56.344Z,99
2022-11-29T00:04:10.349Z,99
2022-11-29T00:05:16.920Z,100
2022-11-29T00:06:24.047Z,100
2022-11-29T00:07:31.186Z,100
2022-11-29T00:08:38.334Z,100
2022-11-29T00:09:45.421Z,99
2022-11-29T00:10:51.953Z,100
2022-11-29T00:11:59.091Z,100
2022-11-29T00:13:06.169Z,100
2022-11-29T00:14:13.304Z,100
2022-11-29T00:15:20.422Z,100
2022-11-29T00:16:27.180Z,99
2022-11-29T00:17:34.188Z,99
2022-11-29T00:18:41.213Z,100
2022-11-29T00:19:48.363Z,99
2022-11-29T00:20:55.432Z,99
2022-11-29T00:22:01.989Z,100
2022-11-29T00:23:09.099Z,100
2022-11-29T00:24:16.201Z,99
2022-11-29T00:25:23.381Z,100
2022-11-29T00:26:30.407Z,100
2022-11-29T00:27:36.987Z,100
2022-11-29T00:28:44.124Z,100
2022-11-29T00:29:51.161Z,100
2022-11-29T00:30:58.439Z,100
2022-11-29T00:32:05.411Z,100
2022-11-29T00:33:12.003Z,100
2022-11-29T00:34:19.400Z,100
2022-11-29T00:35:26.198Z,100
2022-11-29T00:36:33.309Z,100
2022-11-29T00:37:40.388Z,100
2022-11-29T00:38:47.029Z,100
2022-11-29T00:39:54.132Z,100
2022-11-29T00:41:01.218Z,100
2022-11-29T00:42:08.296Z,100
2022-11-29T00:43:15.421Z,100
2022-11-29T00:45:29.117Z,99
2022-11-29T00:46:36.220Z,100
2022-11-29T00:47:43.328Z,100
2022-11-29T00:48:50.421Z,100
2022-11-29T00:49:57.103Z,100
2022-11-29T00:51:04.202Z,100
2022-11-29T00:52:11.202Z,100
2022-11-29T00:53:18.367Z,100
2022-11-29T00:54:25.451Z,100
2022-11-29T00:55:32.023Z,100
2022-11-29T00:56:39.216Z,100
2022-11-29T00:57:46.240Z,100
2022-11-29T00:58:53.345Z,100
2022-11-29T01:00:00.464Z,100
2022-11-29T01:01:07.210Z,99
2022-11-29T01:02:14.215Z,100
2022-11-29T01:03:21.204Z,100
2022-11-29T01:04:28.341Z,100
2022-11-29T01:05:35.529Z,99
2022-11-29T01:07:49.747Z,100
2022-11-29T01:08:56.280Z,100
2022-11-29T01:10:03.385Z,99
2022-11-29T01:11:09.975Z,100
2022-11-29T01:12:17.056Z,99
2022-11-29T01:13:24.169Z,99
2022-11-29T01:14:31.262Z,100
2022-11-29T01:15:38.459Z,100
2022-11-29T01:16:45.065Z,100
2022-11-29T01:17:52.057Z,100
2022-11-29T01:18:59.157Z,100
2022-11-29T01:20:06.317Z,100
2022-11-29T01:21:13.390Z,100
2022-11-29T01:22:19.970Z,100
2022-11-29T01:23:27.057Z,100
2022-11-29T01:24:34.213Z,100
2022-11-29T01:27:55.005Z,100
2022-11-29T01:29:02.064Z,100
2022-11-29T01:30:09.135Z,100
2022-11-29T01:31:16.354Z,100
2022-11-29T01:32:23.352Z,99
2022-11-29T01:33:30.041Z,100
2022-11-29T01:34:37.082Z,100
2022-11-29T01:35:44.274Z,100
2022-11-29T01:36:51.250Z,99
2022-11-29T01:37:58.390Z,99
2022-11-29T01:39:04.980Z,100
2022-11-29T01:40:12.091Z,100
2022-11-29T01:41:19.224Z,100
2022-11-29T01:42:26.284Z,100
2022-11-29T01:43:33.405Z,100
2022-11-29T01:44:40.023Z,100
2022-11-29T01:45:47.112Z,99
2022-11-29T01:46:54.261Z,100
2022-11-29T01:48:01.312Z,100
2022-11-29T01:49:08.449Z,100
2022-11-29T01:50:15.052Z,100
2022-11-29T01:51:22.148Z,100
2022-11-29T01:52:29.375Z,99
2022-11-29T01:53:36.305Z,99
2022-11-29T01:54:43.734Z,99
2022-11-29T01:55:50.091Z,99
2022-11-29T01:56:57.153Z,99
2022-11-29T01:58:04.249Z,99
2022-11-29T01:59:11.307Z,99
2022-11-29T02:00:18.425Z,99
2022-11-29T02:01:25.140Z,99
2022-11-29T02:02:32.184Z,99
2022-11-29T02:03:39.412Z,99
2022-11-29T02:04:46.761Z,99
2022-11-29T02:05:53.452Z,99
2022-11-29T02:08:07.185Z,99
2022-11-29T02:09:14.236Z,99
2022-11-29T02:11:28.473Z,99
2022-11-29T02:12:35.074Z,99
2022-11-29T02:13:42.133Z,99
2022-11-29T02:14:49.234Z,99
2022-11-29T02:15:56.428Z,99
2022-11-29T02:17:03.504Z,99
2022-11-29T02:18:10.005Z,99
2022-11-29T02:19:17.172Z,99
2022-11-29T02:20:24.257Z,99
2022-11-29T02:21:31.348Z,99
2022-11-29T02:22:38.490Z,99
2022-11-29T02:23:45.092Z,99
2022-11-29T02:24:52.180Z,99
2022-11-29T02:25:59.264Z,99
2022-11-29T02:27:06.396Z,99
2022-11-29T02:28:13.513Z,99
2022-11-29T02:29:20.223Z,99
2022-11-29T02:30:27.227Z,99
2022-11-29T02:31:34.252Z,99
2022-11-29T02:32:41.328Z,99
2022-11-29T02:33:48.462Z,99
2022-11-29T02:34:55.081Z,99
2022-11-29T02:36:02.140Z,99
2022-11-29T02:37:11.685Z,99
2022-11-29T02:38:16.421Z,99
2022-11-29T02:39:23.441Z,99
2022-11-29T02:40:30.089Z,99
2022-11-29T02:41:37.174Z,99
2022-11-29T02:42:44.266Z,99
2022-11-29T02:43:51.403Z,99
2022-11-29T02:44:58.534Z,99
2022-11-29T02:46:05.127Z,99
2022-11-29T02:47:12.190Z,99
2022-11-29T02:49:26.418Z,99
2022-11-29T02:50:32.961Z,99
2022-11-29T02:51:40.134Z,99
2022-11-29T02:52:47.215Z,99
2022-11-29T02:53:54.342Z,99
2022-11-29T02:56:07.984Z,99
2022-11-29T02:57:15.164Z,99
2022-11-29T02:58:22.226Z,99
2022-11-29T02:59:29.300Z,99
2022-11-29T03:00:36.385Z,99
2022-11-29T03:01:43.176Z,99
2022-11-29T03:02:50.125Z,99
2022-11-29T03:03:57.232Z,99
2022-11-29T03:05:04.369Z,99
2022-11-29T03:06:11.370Z,98
2022-11-29T03:07:18.101Z,98
2022-11-29T03:08:25.166Z,98
2022-11-29T03:09:32.193Z,98
2022-11-29T03:10:39.338Z,98
2022-11-29T03:11:46.522Z,98
2022-11-29T03:12:55.911Z,97
2022-11-29T03:15:07.249Z,98
2022-11-29T03:16:14.400Z,97
2022-11-29T03:17:21.418Z,97
2022-11-29T03:18:28.037Z,97
2022-11-29T03:19:35.181Z,96
2022-11-29T03:20:42.214Z,96
2022-11-29T03:21:49.411Z,96
2022-11-29T03:22:56.425Z,96
2022-11-29T03:24:03.040Z,96
2022-11-29T03:25:10.155Z,96
2022-11-29T03:26:17.332Z,95
2022-11-29T03:27:24.328Z,98
2022-11-29T03:28:31.491Z,98
2022-11-29T03:30:45.235Z,98
2022-11-29T03:31:52.286Z,98
2022-11-29T03:32:59.354Z,98
2022-11-29T03:34:06.465Z,98
2022-11-29T03:35:13.021Z,98
2022-11-29T03:36:20.212Z,98
2022-11-29T03:37:27.302Z,98
2022-11-29T03:38:34.364Z,98
2022-11-29T03:39:41.544Z,98
2022-11-29T03:40:48.054Z,98
2022-11-29T03:41:55.229Z,98
2022-11-29T03:43:02.282Z,98
2022-11-29T03:44:09.415Z,98
2022-11-29T03:45:16.527Z,98
2022-11-29T03:46:23.096Z,98
2022-11-29T03:47:30.142Z,98
2022-11-29T03:48:37.358Z,98
2022-11-29T03:49:44.368Z,98
2022-11-29T03:50:51.470Z,98
2022-11-29T03:51:58.068Z,98
2022-11-29T03:53:05.230Z,98
2022-11-29T03:54:12.259Z,98
2022-11-29T03:55:19.440Z,98
2022-11-29T03:56:26.543Z,98
2022-11-29T03:57:33.024Z,98
2022-11-29T03:58:40.171Z,98
2022-11-29T03:59:47.322Z,98
2022-11-29T04:00:54.381Z,98
2022-11-29T04:02:01.018Z,98
2022-11-29T04:03:08.131Z,98
2022-11-29T04:04:15.207Z,98
2022-11-29T04:05:22.310Z,98
2022-11-29T04:06:29.418Z,98
2022-11-29T04:07:35.988Z,98
2022-11-29T04:08:43.073Z,98
2022-11-29T04:09:50.192Z,98
2022-11-29T04:12:04.501Z,98
2022-11-29T04:13:11.014Z,98
2022-11-29T04:14:18.108Z,98
2022-11-29T04:15:25.208Z,98
2022-11-29T04:16:32.272Z,98
2022-11-29T04:18:46.042Z,98
2022-11-29T04:19:53.095Z,98
2022-11-29T04:21:00.279Z,98
2022-11-29T04:22:07.349Z,98
2022-11-29T04:24:21.017Z,98
2022-11-29T04:25:28.151Z,98
2022-11-29T04:26:35.443Z,98
2022-11-29T04:27:42.314Z,98
2022-11-29T04:28:49.449Z,98
2022-11-29T04:29:56.018Z,98
2022-11-29T04:31:03.177Z,98
2022-11-29T04:32:10.267Z,98
2022-11-29T04:33:17.357Z,98
2022-11-29T04:34:24.412Z,98
2022-11-29T04:35:31.051Z,98
2022-11-29T04:36:38.172Z,98
2022-11-29T04:37:45.259Z,98
2022-11-29T04:38:52.293Z,98
2022-11-29T04:39:59.477Z,98
2022-11-29T04:41:06.184Z,98
2022-11-29T04:42:13.139Z,98
2022-11-29T04:43:20.291Z,98
2022-11-29T04:44:27.361Z,98
2022-11-29T04:45:34.472Z,98
2022-11-29T04:46:41.073Z,98
2022-11-29T04:47:48.195Z,98
2022-11-29T04:48:55.250Z,98
2022-11-29T04:50:02.320Z,98
2022-11-29T04:51:09.500Z,98
2022-11-29T04:53:23.159Z,98
2022-11-29T04:54:30.251Z,98
2022-11-29T04:55:37.421Z,98
2022-11-29T04:56:44.541Z,98
2022-11-29T04:57:51.029Z,98
2022-11-29T04:58:58.172Z,98
2022-11-29T05:00:05.281Z,98
2022-11-29T05:01:12.513Z,98
2022-11-29T05:02:19.544Z,98
2022-11-29T05:03:26.079Z,98
2022-11-29T05:04:33.179Z,98
2022-11-29T05:05:40.319Z,98
2022-11-29T05:06:47.434Z,98
2022-11-29T05:07:54.572Z,98
2022-11-29T05:09:01.047Z,98
2022-11-29T05:10:08.230Z,98
2022-11-29T05:11:15.321Z,98
2022-11-29T05:12:22.376Z,98
2022-11-29T05:13:29.569Z,98
2022-11-29T05:14:36.091Z,98
2022-11-29T05:15:43.238Z,98
2022-11-29T05:16:50.314Z,98
2022-11-29T05:17:57.385Z,98
2022-11-29T05:19:04.593Z,98
2022-11-29T05:20:11.057Z,98
2022-11-29T05:22:25.341Z,98
2022-11-29T05:23:32.388Z,98
2022-11-29T05:24:39.012Z,98
2022-11-29T05:25:46.135Z,98
2022-11-29T05:26:53.202Z,98
2022-11-29T05:28:01.695Z,98
2022-11-29T05:29:07.408Z,98
2022-11-29T05:30:13.982Z,98
2022-11-29T05:31:21.167Z,98
2022-11-29T05:32:28.253Z,98
2022-11-29T05:34:42.400Z,98
2022-11-29T05:35:49.016Z,98
2022-11-29T05:36:56.119Z,98
2022-11-29T05:38:03.169Z,98
2022-11-29T05:39:10.297Z,98
2022-11-29T05:40:17.427Z,98
2022-11-29T05:41:24.016Z,98
2022-11-29T05:42:31.757Z,98
2022-11-29T05:43:38.240Z,98
2022-11-29T05:44:45.561Z,98
2022-11-29T05:45:52.450Z,98
2022-11-29T05:46:59.012Z,98
2022-11-29T05:48:06.136Z,98
2022-11-29T05:49:13.219Z,98
2022-11-29T05:50:20.339Z,98
2022-11-29T05:52:34.094Z,98
2022-11-29T05:53:41.143Z,98
2022-11-29T05:54:48.245Z,98
2022-11-29T05:55:55.356Z,98
2022-11-29T05:57:02.454Z,98
2022-11-29T05:58:09.041Z,98
2022-11-29T05:59:16.202Z,98
2022-11-29T06:00:23.251Z,98
2022-11-29T06:01:30.421Z,98
2022-11-29T06:02:37.513Z,98
2022-11-29T06:03:44.064Z,98
2022-11-29T06:04:51.101Z,98
2022-11-29T06:05:58.247Z,98
2022-11-29T06:07:05.420Z,98
2022-11-29T06:08:12.456Z,98
2022-11-29T06:09:19.077Z,98
2022-11-29T06:10:26.157Z,98
2022-11-29T06:11:33.220Z,98
2022-11-29T06:12:40.378Z,98
2022-11-29T06:13:47.479Z,98
2022-11-29T06:16:01.370Z,98
2022-11-29T06:17:08.282Z,98
2022-11-29T06:18:15.380Z,98
2022-11-29T06:19:22.472Z,98
2022-11-29T06:20:29.090Z,98
2022-11-29T06:21:36.202Z,98
2022-11-29T06:22:43.282Z,98
2022-11-29T06:23:50.367Z,98
2022-11-29T06:26:04.447Z,98
2022-11-29T06:27:11.227Z,98
2022-11-29T06:28:18.359Z,98
2022-11-29T06:29:25.384Z,98
2022-11-29T06:30:32.449Z,98
2022-11-29T06:31:39.192Z,98
2022-11-29T06:32:47.238Z,98
2022-11-29T06:33:53.283Z,98
2022-11-29T06:35:00.414Z,98
2022-11-29T06:36:07.521Z,98
2022-11-29T06:37:14.120Z,100
2022-11-29T06:38:21.192Z,100
2022-11-29T06:39:28.470Z,100
2022-11-29T06:40:35.389Z,100
2022-11-29T06:41:42.561Z,100
2022-11-29T06:42:49.075Z,100
2022-11-29T06:43:56.222Z,100
2022-11-29T06:45:03.278Z,100
2022-11-29T06:46:10.487Z,100
2022-11-29T06:47:17.540Z,100
2022-11-29T06:48:24.122Z,100
2022-11-29T06:49:31.191Z,100
2022-11-29T06:50:38.309Z,100
2022-11-29T06:51:45.490Z,100
2022-11-29T06:52:52.507Z,100
2022-11-29T06:53:59.137Z,100
2022-11-29T06:55:06.280Z,100
2022-11-29T06:57:20.439Z,100
2022-11-29T06:58:31.451Z,100
2022-11-29T06:59:34.126Z,100
2022-11-29T07:00:41.352Z,100
2022-11-29T07:01:48.351Z,100
2022-11-29T07:02:56.031Z,100
2022-11-29T07:04:01.974Z,100
2022-11-29T07:05:09.153Z,100
2022-11-29T07:06:16.280Z,100
2022-11-29T07:07:23.398Z,100
2022-11-29T07:08:30.426Z,100
2022-11-29T07:09:37.047Z,100
2022-11-29T07:10:44.147Z,100
2022-11-29T07:11:51.198Z,100
2022-11-29T07:12:58.358Z,100
2022-11-29T07:14:05.965Z,100
2022-11-29T07:15:11.990Z,100
2022-11-29T07:16:19.434Z,100
2022-11-29T07:17:26.289Z,100
2022-11-29T07:18:33.330Z,100
2022-11-29T07:20:47.043Z,100
2022-11-29T07:21:54.142Z,100
2022-11-29T07:23:01.283Z,100
2022-11-29T07:24:08.396Z,100
2022-11-29T07:25:15.451Z,100
2022-11-29T07:26:22.013Z,100
2022-11-29T07:27:29.183Z,100
2022-11-29T07:29:43.381Z,100
2022-11-29T07:30:50.511Z,100
2022-11-29T07:31:57.078Z,100
2022-11-29T07:33:04.282Z,100
2022-11-29T07:34:11.271Z,100
2022-11-29T07:35:18.417Z,100
2022-11-29T07:36:25.513Z,100
2022-11-29T07:38:39.212Z,100
2022-11-29T07:39:46.278Z,100
2022-11-29T07:40:53.345Z,100
2022-11-29T07:42:00.497Z,100
2022-11-29T07:43:07.028Z,100
2022-11-29T07:44:14.212Z,100
2022-11-29T07:45:21.256Z,100
2022-11-29T07:46:28.469Z,100
2022-11-29T07:47:36.267Z,100
2022-11-29T07:48:42.083Z,100
2022-11-29T07:49:49.191Z,100
2022-11-29T07:50:56.343Z,100
2022-11-29T07:52:03.454Z,100
2022-11-29T07:53:10.458Z,100
2022-11-29T07:54:17.092Z,100
2022-11-29T07:55:25.273Z,100
2022-11-29T07:56:31.333Z,100
2022-11-29T07:57:38.452Z,100
2022-11-29T07:58:45.632Z,100
2022-11-29T07:59:52.082Z,100
2022-11-29T08:00:59.252Z,100
2022-11-29T08:02:11.509Z,100
2022-11-29T08:03:13.369Z,100
2022-11-29T08:04:20.596Z,100
2022-11-29T08:05:27.142Z,100
2022-11-29T08:06:34.208Z,100
2022-11-29T08:07:41.419Z,100
2022-11-29T08:08:48.436Z,100
2022-11-29T08:09:55.560Z,100
2022-11-29T08:11:02.106Z,100
2022-11-29T08:12:09.246Z,100
2022-11-29T08:13:16.342Z,100
2022-11-29T08:14:23.407Z,100
2022-11-29T08:15:30.562Z,100
2022-11-29T08:16:37.249Z,100
2022-11-29T08:17:44.325Z,100
2022-11-29T08:20:03.716Z,100
2022-11-29T08:21:05.582Z,100
2022-11-29T08:22:12.139Z,100
2022-11-29T08:23:19.248Z,100
2022-11-29T08:24:26.323Z,100
2022-11-29T08:25:33.417Z,100
2022-11-29T08:26:40.550Z,100
2022-11-29T08:27:47.190Z,100
2022-11-29T08:28:54.267Z,100
2022-11-29T08:30:01.386Z,100
2022-11-29T08:31:08.546Z,100
2022-11-29T08:33:22.136Z,100
2022-11-29T08:34:29.221Z,100
2022-11-29T08:35:36.387Z,100
2022-11-29T08:36:43.540Z,100
2022-11-29T08:37:50.515Z,100
2022-11-29T08:39:03.435Z,100
2022-11-29T08:40:04.252Z,100
2022-11-29T08:41:11.401Z,100
2022-11-29T08:42:18.524Z,100
2022-11-29T08:43:25.068Z,100
2022-11-29T08:44:32.152Z,100
2022-11-29T08:45:39.394Z,100
2022-11-29T08:46:46.423Z,100
2022-11-29T08:49:00.073Z,100
2022-11-29T08:50:07.173Z,100
2022-11-29T08:51:14.305Z,100
2022-11-29T08:52:21.486Z,100
2022-11-29T08:53:28.477Z,100
2022-11-29T08:54:35.108Z,100
2022-11-29T08:55:42.160Z,100
2022-11-29T08:57:23.627Z,100
2022-11-29T08:57:56.365Z,100
2022-11-29T08:59:03.459Z,100
2022-11-29T09:01:17.342Z,100
2022-11-29T09:02:24.377Z,100
2022-11-29T09:03:31.389Z,100
2022-11-29T09:04:38.489Z,100
2022-11-29T09:05:45.086Z,100
2022-11-29T09:06:52.174Z,100
2022-11-29T09:07:59.388Z,100
2022-11-29T09:09:06.439Z,100
2022-11-29T09:10:13.481Z,100
2022-11-29T09:11:20.107Z,100
2022-11-29T09:12:27.291Z,100
2022-11-29T09:13:34.329Z,100
2022-11-29T09:14:41.390Z,100
2022-11-29T09:15:48.513Z,100
2022-11-29T09:16:55.195Z,100
2022-11-29T09:18:02.203Z,100
2022-11-29T09:19:09.293Z,100
2022-11-29T09:20:16.442Z,100
2022-11-29T09:21:23.481Z,100
2022-11-29T09:22:30.132Z,100
2022-11-29T09:23:37.196Z,100
2022-11-29T09:24:44.595Z,100
2022-11-29T09:25:51.385Z,100
2022-11-29T09:26:58.523Z,100
2022-11-29T09:28:05.135Z,100
2022-11-29T09:29:12.268Z,100
2022-11-29T09:30:23.690Z,100
2022-11-29T09:31:26.496Z,100
2022-11-29T09:32:33.567Z,100
2022-11-29T09:33:40.141Z,100
2022-11-29T09:34:47.515Z,100
2022-11-29T09:37:01.427Z,100
2022-11-29T09:38:08.544Z,100
2022-11-29T09:39:15.137Z,100
2022-11-29T09:40:22.193Z,100
2022-11-29T09:42:36.460Z,100
2022-11-29T09:43:43.542Z,100
2022-11-29T09:44:50.229Z,100
2022-11-29T09:45:57.308Z,100
2022-11-29T09:47:04.392Z,100
2022-11-29T09:48:11.492Z,100
2022-11-29T09:49:18.615Z,100
2022-11-29T09:50:25.153Z,100
2022-11-29T09:51:32.207Z,100
2022-11-29T09:52:39.360Z,100
2022-11-29T09:53:46.470Z,100
2022-11-29T09:54:53.552Z,100
2022-11-29T09:56:00.189Z,100
2022-11-29T09:57:10.664Z,100
2022-11-29T09:58:14.371Z,100
2022-11-29T09:59:20.914Z,100
2022-11-29T10:00:28.072Z,100
2022-11-29T10:01:35.229Z,100
2022-11-29T10:02:42.446Z,100
2022-11-29T10:03:49.409Z,100
2022-11-29T10:04:56.455Z,100
2022-11-29T10:06:03.044Z,100
2022-11-29T10:07:10.172Z,100
2022-11-29T10:08:17.263Z,100
2022-11-29T10:09:24.370Z,100
2022-11-29T10:10:31.431Z,100
2022-11-29T10:11:38.050Z,100
2022-11-29T10:12:45.193Z,100
2022-11-29T10:13:52.264Z,100
2022-11-29T10:14:59.410Z,100
2022-11-29T10:17:13.107Z,100
2022-11-29T10:18:20.165Z,100
2022-11-29T10:19:27.331Z,100
2022-11-29T10:20:39.710Z,100
2022-11-29T10:21:41.491Z,100
2022-11-29T10:23:55.243Z,100
2022-11-29T10:25:02.267Z,100
2022-11-29T10:26:09.382Z,100
2022-11-29T10:27:16.631Z,100
2022-11-29T10:28:23.081Z,100
2022-11-29T10:29:30.211Z,100
2022-11-29T10:30:37.316Z,100
2022-11-29T10:31:44.451Z,100
2022-11-29T10:32:51.489Z,100
2022-11-29T10:33:58.124Z,100
2022-11-29T10:35:05.201Z,100
2022-11-29T10:36:12.266Z,100
2022-11-29T10:37:19.451Z,100
2022-11-29T10:38:31.183Z,100
2022-11-29T10:40:40.234Z,100
2022-11-29T10:41:47.307Z,100
2022-11-29T10:42:56.126Z,100
2022-11-29T10:44:01.529Z,100
2022-11-29T10:45:08.141Z,100
2022-11-29T10:46:15.427Z,100
2022-11-29T10:47:22.362Z,100
2022-11-29T10:48:29.484Z,100
2022-11-29T10:49:36.570Z,100
2022-11-29T10:50:43.123Z,100
2022-11-29T10:51:50.215Z,100
2022-11-29T10:53:00.145Z,100
2022-11-29T10:54:04.502Z,100
2022-11-29T10:55:11.511Z,100
2022-11-29T10:56:18.128Z,100
2022-11-29T10:57:25.254Z,100
2022-11-29T10:58:32.311Z,100
2022-11-29T10:59:39.460Z,100
2022-11-29T11:00:46.762Z,100
2022-11-29T11:01:53.225Z,100
2022-11-29T11:03:00.296Z,100
2022-11-29T11:04:07.429Z,100
2022-11-29T11:05:14.509Z,100
2022-11-29T11:06:21.660Z,100
2022-11-29T11:07:28.226Z,100
2022-11-29T11:08:35.260Z,100
2022-11-29T11:09:42.355Z,100
2022-11-29T11:10:53.676Z,100
2022-11-29T11:11:56.644Z,100
2022-11-29T11:13:03.132Z,100
2022-11-29T11:14:10.296Z,100
2022-11-29T11:15:17.363Z,100
2022-11-29T11:16:24.629Z,100
2022-11-29T11:17:31.621Z,100
2022-11-29T11:18:38.146Z,100
2022-11-29T11:19:45.275Z,100
2022-11-29T11:20:52.333Z,100
2022-11-29T11:21:59.981Z,100
2022-11-29T11:23:06.113Z,100
2022-11-29T11:24:13.125Z,100
2022-11-29T11:25:20.302Z,100
2022-11-29T11:26:27.364Z,100
2022-11-29T11:27:34.464Z,100
2022-11-29T11:28:41.073Z,100
2022-11-29T11:29:48.162Z,100
2022-11-29T11:30:55.336Z,100
2022-11-29T11:32:02.425Z,100
2022-11-29T11:33:09.525Z,100
2022-11-29T11:34:16.152Z,100
2022-11-29T11:35:23.177Z,100
2022-11-29T11:36:30.295Z,100
2022-11-29T11:37:37.422Z,100
2022-11-29T11:38:44.533Z,100
2022-11-29T11:39:51.231Z,100
2022-11-29T11:40:58.288Z,100
2022-11-29T11:42:05.303Z,100
2022-11-29T11:45:26.203Z,100
2022-11-29T11:46:33.269Z,100
2022-11-29T11:47:40.287Z,100
2022-11-29T11:48:47.424Z,100
2022-11-29T11:49:54.518Z,100
2022-11-29T11:51:01.119Z,100
2022-11-29T11:52:08.224Z,100
2022-11-29T11:53:15.330Z,100
2022-11-29T11:54:22.392Z,100
2022-11-29T11:55:29.501Z,100
2022-11-29T11:56:36.191Z,100
2022-11-29T11:57:43.203Z,100
2022-11-29T11:58:50.284Z,100
2022-11-29T12:00:02.030Z,100
2022-11-29T12:01:05.210Z,100
2022-11-29T12:02:11.242Z,100
2022-11-29T12:03:18.322Z,100
2022-11-29T12:04:25.317Z,100
2022-11-29T12:05:32.412Z,100
2022-11-29T12:06:39.499Z,100
2022-11-29T12:08:07.300Z,100
2022-11-29T12:08:53.215Z,100
2022-11-29T12:10:00.315Z,100
2022-11-29T12:11:07.740Z,100
2022-11-29T12:12:14.574Z,100
2022-11-29T12:13:21.158Z,100
2022-11-29T12:14:28.242Z,100
2022-11-29T12:15:35.502Z,100
2022-11-29T12:16:42.400Z,100
2022-11-29T12:17:49.612Z,100
2022-11-29T12:18:56.161Z,100
2022-11-29T12:20:03.223Z,100
2022-11-29T12:21:10.331Z,100
2022-11-29T12:22:17.488Z,100
2022-11-29T12:23:24.596Z,100
2022-11-29T12:24:31.144Z,100
2022-11-29T12:25:38.338Z,100
2022-11-29T12:26:57.475Z,100
2022-11-29T12:27:52.470Z,100
2022-11-29T12:28:59.062Z,100
2022-11-29T12:30:06.173Z,100
2022-11-29T12:31:13.348Z,100
2022-11-29T12:32:20.413Z,100
2022-11-29T12:33:28.507Z,100
2022-11-29T12:34:34.092Z,100
2022-11-29T12:35:41.138Z,100
2022-11-29T12:36:48.311Z,100
2022-11-29T12:37:55.456Z,100
2022-11-29T12:39:02.501Z,100
2022-11-29T12:40:09.066Z,100
2022-11-29T12:41:16.241Z,100
2022-11-29T12:42:23.314Z,100
2022-11-29T12:43:30.392Z,100
2022-11-29T12:44:37.032Z,100
2022-11-29T12:45:44.097Z,100
2022-11-29T12:47:58.318Z,100
2022-11-29T12:49:05.383Z,100
2022-11-29T12:50:12.533Z,99
2022-11-29T12:51:19.073Z,99
2022-11-29T12:52:26.272Z,99
2022-11-29T12:53:33.300Z,100
2022-11-29T12:54:40.350Z,99
2022-11-29T12:55:47.532Z,99
2022-11-29T12:56:54.122Z,99
2022-11-29T12:58:01.227Z,99
2022-11-29T12:59:08.286Z,99
2022-11-29T13:00:15.476Z,99
2022-11-29T13:01:22.554Z,99
2022-11-29T13:02:29.205Z,99
2022-11-29T13:03:36.254Z,99
2022-11-29T13:04:43.459Z,99
2022-11-29T13:05:50.471Z,99
2022-11-29T13:06:57.499Z,99
2022-11-29T13:08:04.179Z,99
2022-11-29T13:09:11.219Z,99
2022-11-29T13:10:18.813Z,99
2022-11-29T13:11:25.432Z,99
2022-11-29T13:13:39.161Z,99
2022-11-29T13:14:46.303Z,99
2022-11-29T13:15:53.517Z,99
2022-11-29T13:17:00.545Z,99
2022-11-29T13:18:07.612Z,99
2022-11-29T13:19:14.109Z,99
2022-11-29T13:20:21.205Z,99
2022-11-29T13:21:28.380Z,99
2022-11-29T13:22:35.547Z,99
2022-11-29T13:24:07.194Z,99
2022-11-29T13:24:49.523Z,99
2022-11-29T13:25:56.768Z,99
2022-11-29T13:27:03.400Z,99
2022-11-29T13:28:10.433Z,99
2022-11-29T13:29:17.595Z,99
2022-11-29T13:30:24.137Z,99
2022-11-29T13:31:31.323Z,99
2022-11-29T13:32:38.417Z,99
2022-11-29T13:33:45.506Z,99
2022-11-29T13:34:52.508Z,99
2022-11-29T13:35:59.158Z,99
2022-11-29T13:37:06.336Z,99
2022-11-29T13:38:13.420Z,99
2022-11-29T13:39:20.471Z,99
2022-11-29T13:40:27.604Z,99
2022-11-29T13:41:34.162Z,99
2022-11-29T13:42:41.317Z,99
2022-11-29T13:43:48.349Z,99
2022-11-29T13:44:55.482Z,99
2022-11-29T13:46:02.644Z,99
2022-11-29T13:47:09.212Z,99
2022-11-29T13:48:16.280Z,99
2022-11-29T13:49:23.406Z,99
2022-11-29T13:51:37.621Z,99
2022-11-29T13:52:44.240Z,99
2022-11-29T13:53:51.269Z,99
2022-11-29T13:54:58.359Z,99
2022-11-29T13:56:05.504Z,99
2022-11-29T13:57:12.590Z,99
2022-11-29T13:58:19.292Z,99
2022-11-29T13:59:26.322Z,99
2022-11-29T14:00:33.421Z,98
2022-11-29T14:01:40.479Z,99
2022-11-29T14:02:47.618Z,98
2022-11-29T14:03:54.207Z,99
2022-11-29T14:05:01.266Z,98
2022-11-29T14:06:08.400Z,98
2022-11-29T14:08:22.115Z,98
2022-11-29T14:09:29.200Z,98
2022-11-29T14:10:36.303Z,98
2022-11-29T14:11:43.357Z,98
2022-11-29T14:12:50.529Z,98
2022-11-29T14:13:57.134Z,98
2022-11-29T14:15:04.224Z,98
2022-11-29T14:16:11.286Z,98
2022-11-29T14:17:18.423Z,98
2022-11-29T14:18:25.544Z,98
2022-11-29T14:19:33.969Z,98
2022-11-29T14:20:39.241Z,98
2022-11-29T14:21:46.305Z,98
2022-11-29T14:22:56.201Z,97
2022-11-29T14:24:00.544Z,97
2022-11-29T14:25:21.912Z,97
2022-11-29T14:26:14.264Z,97
2022-11-29T14:27:21.286Z,97
2022-11-29T14:28:28.454Z,97
2022-11-29T14:29:35.575Z,97
2022-11-29T14:30:42.204Z,97
2022-11-29T14:31:49.220Z,97
2022-11-29T14:32:56.319Z,96
2022-11-29T14:34:03.384Z,97
2022-11-29T14:35:10.502Z,97
2022-11-29T14:36:17.151Z,96
2022-11-29T14:37:24.215Z,96
2022-11-29T14:38:31.466Z,96
2022-11-29T14:39:38.466Z,96
2022-11-29T14:41:52.134Z,96
2022-11-29T14:42:59.292Z,96
2022-11-29T14:44:06.375Z,95
2022-11-29T14:45:13.399Z,96
2022-11-29T14:46:24.715Z,95
2022-11-29T14:47:27.143Z,95
2022-11-29T14:49:41.342Z,95
2022-11-29T14:50:48.516Z,95
2022-11-29T14:51:55.163Z,95
2022-11-29T14:53:02.250Z,94
2022-11-29T14:55:16.337Z,94
2022-11-29T14:56:23.479Z,94
2022-11-29T14:57:30.670Z,94
2022-11-29T14:58:37.289Z,94
2022-11-29T14:59:44.244Z,94
2022-11-29T15:00:51.326Z,94
2022-11-29T15:01:58.679Z,94
2022-11-29T15:03:05.697Z,94
2022-11-29T15:04:12.375Z,94
2022-11-29T15:05:19.251Z,93
2022-11-29T15:06:26.494Z,93
2022-11-29T15:07:33.661Z,93
2022-11-29T15:08:40.779Z,93
2022-11-29T15:09:47.401Z,93
2022-11-29T15:10:54.250Z,93
2022-11-29T15:12:01.469Z,93
2022-11-29T15:13:08.641Z,93
2022-11-29T15:14:15.873Z,93
2022-11-29T15:15:22.433Z,93
2022-11-29T15:16:29.496Z,93
2022-11-29T15:17:37.062Z,93
2022-11-29T15:18:43.661Z,93
2022-11-29T15:19:50.756Z,93
2022-11-29T15:20:57.474Z,93
2022-11-29T15:22:04.287Z,93
2022-11-29T15:23:11.608Z,93
2022-11-29T15:24:19.855Z,93
2022-11-29T15:25:25.596Z,93
2022-11-29T15:26:32.495Z,93
2022-11-29T15:27:40.401Z,93
2022-11-29T15:28:46.513Z,94
2022-11-29T15:31:00.263Z,94
2022-11-29T15:32:07.152Z,94
2022-11-29T15:33:14.443Z,94
2022-11-29T15:34:21.383Z,94
2022-11-29T15:35:28.684Z,94
2022-11-29T15:36:35.830Z,94
2022-11-29T15:37:42.270Z,94
2022-11-29T15:38:49.427Z,94
2022-11-29T15:39:56.589Z,94
2022-11-29T15:41:03.676Z,94
2022-11-29T15:42:10.290Z,94
2022-11-29T15:43:17.392Z,93
2022-11-29T15:44:24.306Z,93
2022-11-29T15:45:31.751Z,93
2022-11-29T15:46:38.755Z,93
2022-11-29T15:47:45.150Z,93
2022-11-29T15:48:52.166Z,93
2022-11-29T15:49:59.474Z,93
2022-11-29T15:51:06.589Z,93
2022-11-29T15:52:20.057Z,93
2022-11-29T15:53:20.124Z,93
2022-11-29T15:54:27.174Z,93
2022-11-29T15:55:34.321Z,93
2022-11-29T15:56:41.633Z,92
2022-11-29T15:58:55.155Z,92
2022-11-29T16:00:02.190Z,92
2022-11-29T16:01:09.505Z,92
2022-11-29T16:02:16.567Z,92
2022-11-29T16:03:23.512Z,92
2022-11-29T16:04:30.298Z,92
2022-11-29T16:05:37.371Z,92
2022-11-29T16:06:44.469Z,92
2022-11-29T16:07:51.627Z,92
2022-11-29T16:08:58.655Z,92
2022-11-29T16:10:05.194Z,92
2022-11-29T16:12:19.481Z,92
2022-11-29T16:13:26.597Z,92
2022-11-29T16:14:33.514Z,92
2022-11-29T16:15:40.448Z,92
2022-11-29T16:16:47.634Z,92
2022-11-29T16:17:54.576Z,92
2022-11-29T16:19:01.598Z,92
2022-11-29T16:20:08.543Z,92
2022-11-29T16:21:15.156Z,92
2022-11-29T16:22:22.438Z,92
2022-11-29T16:23:29.645Z,92
2022-11-29T16:24:36.670Z,92
2022-11-29T16:25:43.684Z,92
2022-11-29T16:26:50.270Z,92
2022-11-29T16:27:57.318Z,92
2022-11-29T16:29:04.440Z,92
2022-11-29T16:30:11.553Z,92